sensor_id;sensor_type;location;lat;lon;timestamp;P1;durP1;ratioP1;P2;durP2;ratioP2
3405;SDS011;10008;48.682;9.016;2024-01-25T00:01:17;18.70;;;11.50;;
3405;SDS011;10008;48.682;9.016;2024-01-25T00:03:43;20.23;;;12.07;;
3405;SDS011;10008;48.682;9.016;2024-01-25T00:06:08;28.13;;;11.20;;
3405;SDS011;10008;48.682;9.016;2024-01-25T00:08:34;20.67;;;12.10;;
3405;SDS011;10008;48.682;9.016;2024-01-25T00:11:01;25.30;;;11.63;;
3405;SDS011;10008;48.682;9.016;2024-01-25T00:13:27;21.77;;;12.10;;
3405;SDS011;10008;48.682;9.016;2024-01-25T00:15:53;22.70;;;11.90;;
3405;SDS011;10008;48.682;9.016;2024-01-25T00:18:19;18.60;;;11.53;;
3405;SDS011;10008;48.682;9.016;2024-01-25T00:20:45;20.37;;;11.97;;
3405;SDS011;10008;48.682;9.016;2024-01-25T00:23:11;19.87;;;11.90;;
3405;SDS011;10008;48.682;9.016;2024-01-25T00:25:37;23.50;;;12.13;;
3405;SDS011;10008;48.682;9.016;2024-01-25T00:28:02;22.93;;;11.40;;
3405;SDS011;10008;48.682;9.016;2024-01-25T00:30:28;23.40;;;11.57;;
3405;SDS011;10008;48.682;9.016;2024-01-25T00:32:55;20.23;;;11.40;;
3405;SDS011;10008;48.682;9.016;2024-01-25T00:35:22;23.37;;;12.10;;
3405;SDS011;10008;48.682;9.016;2024-01-25T00:37:48;25.10;;;11.40;;
3405;SDS011;10008;48.682;9.016;2024-01-25T00:40:14;20.53;;;11.40;;
3405;SDS011;10008;48.682;9.016;2024-01-25T00:42:41;20.33;;;13.17;;
3405;SDS011;10008;48.682;9.016;2024-01-25T00:45:08;22.80;;;11.50;;
3405;SDS011;10008;48.682;9.016;2024-01-25T00:47:35;15.90;;;10.90;;
3405;SDS011;10008;48.682;9.016;2024-01-25T00:50:01;22.43;;;11.67;;
3405;SDS011;10008;48.682;9.016;2024-01-25T00:52:27;19.00;;;11.20;;
3405;SDS011;10008;48.682;9.016;2024-01-25T00:54:53;17.13;;;10.73;;
3405;SDS011;10008;48.682;9.016;2024-01-25T00:57:19;22.57;;;11.97;;
3405;SDS011;10008;48.682;9.016;2024-01-25T00:59:45;20.87;;;11.60;;
3405;SDS011;10008;48.682;9.016;2024-01-25T01:02:12;20.50;;;13.50;;
3405;SDS011;10008;48.682;9.016;2024-01-25T01:04:39;22.80;;;12.40;;
3405;SDS011;10008;48.682;9.016;2024-01-25T01:07:05;19.93;;;12.70;;
3405;SDS011;10008;48.682;9.016;2024-01-25T01:09:32;22.40;;;12.23;;
3405;SDS011;10008;48.682;9.016;2024-01-25T01:11:58;16.50;;;11.63;;
3405;SDS011;10008;48.682;9.016;2024-01-25T01:14:24;20.37;;;11.33;;
3405;SDS011;10008;48.682;9.016;2024-01-25T01:16:50;27.73;;;12.57;;
3405;SDS011;10008;48.682;9.016;2024-01-25T01:19:16;14.50;;;11.27;;
3405;SDS011;10008;48.682;9.016;2024-01-25T01:21:42;15.60;;;11.40;;
3405;SDS011;10008;48.682;9.016;2024-01-25T01:24:11;21.33;;;12.97;;
3405;SDS011;10008;48.682;9.016;2024-01-25T01:26:37;18.57;;;11.30;;
3405;SDS011;10008;48.682;9.016;2024-01-25T01:29:03;23.63;;;11.43;;
3405;SDS011;10008;48.682;9.016;2024-01-25T01:31:29;24.43;;;12.10;;
3405;SDS011;10008;48.682;9.016;2024-01-25T01:33:55;20.80;;;11.00;;
3405;SDS011;10008;48.682;9.016;2024-01-25T01:36:23;17.07;;;11.00;;
3405;SDS011;10008;48.682;9.016;2024-01-25T01:38:48;20.93;;;10.73;;
3405;SDS011;10008;48.682;9.016;2024-01-25T01:41:14;17.30;;;10.63;;
3405;SDS011;10008;48.682;9.016;2024-01-25T01:43:40;19.57;;;10.90;;
3405;SDS011;10008;48.682;9.016;2024-01-25T01:46:11;19.57;;;11.17;;
3405;SDS011;10008;48.682;9.016;2024-01-25T01:48:42;16.53;;;10.60;;
3405;SDS011;10008;48.682;9.016;2024-01-25T01:51:08;22.43;;;11.00;;
3405;SDS011;10008;48.682;9.016;2024-01-25T01:53:34;23.90;;;10.97;;
3405;SDS011;10008;48.682;9.016;2024-01-25T01:56:01;22.47;;;11.53;;
3405;SDS011;10008;48.682;9.016;2024-01-25T01:58:27;21.73;;;10.60;;
3405;SDS011;10008;48.682;9.016;2024-01-25T02:00:53;20.93;;;11.70;;
3405;SDS011;10008;48.682;9.016;2024-01-25T02:03:21;23.30;;;11.10;;
3405;SDS011;10008;48.682;9.016;2024-01-25T02:05:47;17.57;;;10.93;;
3405;SDS011;10008;48.682;9.016;2024-01-25T02:08:13;21.77;;;11.23;;
3405;SDS011;10008;48.682;9.016;2024-01-25T02:10:39;20.37;;;12.60;;
3405;SDS011;10008;48.682;9.016;2024-01-25T02:13:05;22.70;;;11.07;;
3405;SDS011;10008;48.682;9.016;2024-01-25T02:15:31;26.63;;;10.87;;
3405;SDS011;10008;48.682;9.016;2024-01-25T02:17:57;18.87;;;10.80;;
3405;SDS011;10008;48.682;9.016;2024-01-25T02:20:24;19.93;;;10.87;;
3405;SDS011;10008;48.682;9.016;2024-01-25T02:22:50;19.60;;;11.50;;
3405;SDS011;10008;48.682;9.016;2024-01-25T02:25:15;21.83;;;11.47;;
3405;SDS011;10008;48.682;9.016;2024-01-25T02:27:41;17.67;;;10.63;;
3405;SDS011;10008;48.682;9.016;2024-01-25T02:30:07;17.40;;;10.63;;
3405;SDS011;10008;48.682;9.016;2024-01-25T02:32:33;19.27;;;11.60;;
3405;SDS011;10008;48.682;9.016;2024-01-25T02:34:59;24.97;;;13.00;;
3405;SDS011;10008;48.682;9.016;2024-01-25T02:37:25;24.00;;;11.60;;
3405;SDS011;10008;48.682;9.016;2024-01-25T02:39:52;17.20;;;10.97;;
3405;SDS011;10008;48.682;9.016;2024-01-25T02:42:19;22.50;;;11.20;;
3405;SDS011;10008;48.682;9.016;2024-01-25T02:44:44;21.50;;;11.47;;
3405;SDS011;10008;48.682;9.016;2024-01-25T02:47:10;19.90;;;11.67;;
3405;SDS011;10008;48.682;9.016;2024-01-25T02:49:36;16.07;;;11.23;;
3405;SDS011;10008;48.682;9.016;2024-01-25T02:52:02;25.67;;;11.77;;
3405;SDS011;10008;48.682;9.016;2024-01-25T02:54:28;18.60;;;10.93;;
3405;SDS011;10008;48.682;9.016;2024-01-25T02:56:53;24.50;;;11.53;;
3405;SDS011;10008;48.682;9.016;2024-01-25T02:59:19;19.43;;;12.40;;
3405;SDS011;10008;48.682;9.016;2024-01-25T03:01:45;20.90;;;12.00;;
3405;SDS011;10008;48.682;9.016;2024-01-25T03:04:12;18.43;;;11.50;;
3405;SDS011;10008;48.682;9.016;2024-01-25T03:06:38;22.33;;;12.10;;
3405;SDS011;10008;48.682;9.016;2024-01-25T03:09:04;24.07;;;11.93;;
3405;SDS011;10008;48.682;9.016;2024-01-25T03:11:30;19.60;;;11.20;;
3405;SDS011;10008;48.682;9.016;2024-01-25T03:13:56;18.20;;;11.50;;
3405;SDS011;10008;48.682;9.016;2024-01-25T03:16:22;19.50;;;11.33;;
3405;SDS011;10008;48.682;9.016;2024-01-25T03:18:48;21.30;;;11.23;;
3405;SDS011;10008;48.682;9.016;2024-01-25T03:21:13;23.00;;;11.47;;
3405;SDS011;10008;48.682;9.016;2024-01-25T03:23:39;15.63;;;11.07;;
3405;SDS011;10008;48.682;9.016;2024-01-25T03:26:05;14.53;;;11.00;;
3405;SDS011;10008;48.682;9.016;2024-01-25T03:28:31;17.90;;;11.30;;
3405;SDS011;10008;48.682;9.016;2024-01-25T03:30:58;26.90;;;11.63;;
3405;SDS011;10008;48.682;9.016;2024-01-25T03:33:23;19.97;;;11.57;;
3405;SDS011;10008;48.682;9.016;2024-01-25T03:35:50;17.50;;;11.83;;
3405;SDS011;10008;48.682;9.016;2024-01-25T03:38:17;20.07;;;11.60;;
3405;SDS011;10008;48.682;9.016;2024-01-25T03:40:42;19.43;;;11.13;;
3405;SDS011;10008;48.682;9.016;2024-01-25T03:43:09;15.87;;;11.50;;
3405;SDS011;10008;48.682;9.016;2024-01-25T03:45:34;17.57;;;10.63;;
3405;SDS011;10008;48.682;9.016;2024-01-25T03:48:00;18.27;;;11.40;;
3405;SDS011;10008;48.682;9.016;2024-01-25T03:50:26;20.17;;;10.83;;
3405;SDS011;10008;48.682;9.016;2024-01-25T03:52:52;15.20;;;10.90;;
3405;SDS011;10008;48.682;9.016;2024-01-25T03:55:18;18.87;;;11.30;;
3405;SDS011;10008;48.682;9.016;2024-01-25T03:57:44;23.30;;;11.63;;
3405;SDS011;10008;48.682;9.016;2024-01-25T04:00:10;21.07;;;11.57;;
3405;SDS011;10008;48.682;9.016;2024-01-25T04:02:36;23.67;;;11.33;;
3405;SDS011;10008;48.682;9.016;2024-01-25T04:05:02;19.93;;;11.40;;
3405;SDS011;10008;48.682;9.016;2024-01-25T04:07:29;19.23;;;11.43;;
3405;SDS011;10008;48.682;9.016;2024-01-25T04:09:55;14.40;;;10.60;;
3405;SDS011;10008;48.682;9.016;2024-01-25T04:12:20;19.90;;;11.03;;
3405;SDS011;10008;48.682;9.016;2024-01-25T04:14:46;23.90;;;10.70;;
3405;SDS011;10008;48.682;9.016;2024-01-25T04:17:12;20.80;;;10.80;;
3405;SDS011;10008;48.682;9.016;2024-01-25T04:19:37;18.83;;;11.33;;
3405;SDS011;10008;48.682;9.016;2024-01-25T04:22:03;16.60;;;10.60;;
3405;SDS011;10008;48.682;9.016;2024-01-25T04:24:29;18.20;;;10.30;;
3405;SDS011;10008;48.682;9.016;2024-01-25T04:26:54;15.47;;;10.70;;
3405;SDS011;10008;48.682;9.016;2024-01-25T04:29:20;14.10;;;11.13;;
3405;SDS011;10008;48.682;9.016;2024-01-25T04:31:46;16.67;;;11.47;;
3405;SDS011;10008;48.682;9.016;2024-01-25T04:34:13;17.57;;;11.23;;
3405;SDS011;10008;48.682;9.016;2024-01-25T04:36:40;17.67;;;10.83;;
3405;SDS011;10008;48.682;9.016;2024-01-25T04:39:06;17.13;;;10.40;;
3405;SDS011;10008;48.682;9.016;2024-01-25T04:41:31;19.50;;;10.60;;
3405;SDS011;10008;48.682;9.016;2024-01-25T04:43:57;14.83;;;10.90;;
3405;SDS011;10008;48.682;9.016;2024-01-25T04:46:23;21.17;;;11.80;;
3405;SDS011;10008;48.682;9.016;2024-01-25T04:48:49;18.57;;;11.50;;
3405;SDS011;10008;48.682;9.016;2024-01-25T04:51:15;22.33;;;11.17;;
3405;SDS011;10008;48.682;9.016;2024-01-25T04:53:42;17.87;;;12.00;;
3405;SDS011;10008;48.682;9.016;2024-01-25T04:56:08;20.47;;;10.60;;
3405;SDS011;10008;48.682;9.016;2024-01-25T04:58:33;23.93;;;11.30;;
3405;SDS011;10008;48.682;9.016;2024-01-25T05:00:59;22.63;;;14.40;;
3405;SDS011;10008;48.682;9.016;2024-01-25T05:03:25;19.13;;;11.70;;
3405;SDS011;10008;48.682;9.016;2024-01-25T05:05:51;23.07;;;12.17;;
3405;SDS011;10008;48.682;9.016;2024-01-25T05:08:17;24.40;;;12.20;;
3405;SDS011;10008;48.682;9.016;2024-01-25T05:10:43;18.90;;;11.23;;
3405;SDS011;10008;48.682;9.016;2024-01-25T05:13:09;18.00;;;10.97;;
3405;SDS011;10008;48.682;9.016;2024-01-25T05:15:35;22.33;;;11.80;;
3405;SDS011;10008;48.682;9.016;2024-01-25T05:18:01;17.43;;;11.20;;
3405;SDS011;10008;48.682;9.016;2024-01-25T05:20:27;23.73;;;12.03;;
3405;SDS011;10008;48.682;9.016;2024-01-25T05:23:02;21.67;;;11.37;;
3405;SDS011;10008;48.682;9.016;2024-01-25T05:25:29;22.03;;;11.37;;
3405;SDS011;10008;48.682;9.016;2024-01-25T05:27:55;19.50;;;11.97;;
3405;SDS011;10008;48.682;9.016;2024-01-25T05:30:21;16.23;;;11.30;;
3405;SDS011;10008;48.682;9.016;2024-01-25T05:32:47;24.27;;;11.60;;
3405;SDS011;10008;48.682;9.016;2024-01-25T05:35:14;23.93;;;12.77;;
3405;SDS011;10008;48.682;9.016;2024-01-25T05:37:40;16.00;;;12.10;;
3405;SDS011;10008;48.682;9.016;2024-01-25T05:40:07;20.30;;;12.10;;
3405;SDS011;10008;48.682;9.016;2024-01-25T05:42:34;22.00;;;11.83;;
3405;SDS011;10008;48.682;9.016;2024-01-25T05:45:00;19.97;;;12.27;;
3405;SDS011;10008;48.682;9.016;2024-01-25T05:47:29;20.20;;;11.73;;
3405;SDS011;10008;48.682;9.016;2024-01-25T05:49:55;23.90;;;11.53;;
3405;SDS011;10008;48.682;9.016;2024-01-25T05:52:21;23.77;;;12.70;;
3405;SDS011;10008;48.682;9.016;2024-01-25T05:54:48;23.53;;;12.10;;
3405;SDS011;10008;48.682;9.016;2024-01-25T05:57:15;23.63;;;12.40;;
3405;SDS011;10008;48.682;9.016;2024-01-25T05:59:41;23.13;;;12.60;;
3405;SDS011;10008;48.682;9.016;2024-01-25T06:02:06;23.27;;;12.40;;
3405;SDS011;10008;48.682;9.016;2024-01-25T06:04:33;22.90;;;12.50;;
3405;SDS011;10008;48.682;9.016;2024-01-25T06:06:59;21.87;;;12.30;;
3405;SDS011;10008;48.682;9.016;2024-01-25T06:09:25;26.37;;;13.93;;
3405;SDS011;10008;48.682;9.016;2024-01-25T06:11:51;25.80;;;13.53;;
3405;SDS011;10008;48.682;9.016;2024-01-25T06:14:17;25.87;;;13.47;;
3405;SDS011;10008;48.682;9.016;2024-01-25T06:16:43;28.40;;;14.43;;
3405;SDS011;10008;48.682;9.016;2024-01-25T06:19:09;26.73;;;12.77;;
3405;SDS011;10008;48.682;9.016;2024-01-25T06:21:35;23.23;;;13.27;;
3405;SDS011;10008;48.682;9.016;2024-01-25T06:24:03;21.47;;;13.73;;
3405;SDS011;10008;48.682;9.016;2024-01-25T06:26:29;24.57;;;13.43;;
3405;SDS011;10008;48.682;9.016;2024-01-25T06:28:56;25.00;;;12.90;;
3405;SDS011;10008;48.682;9.016;2024-01-25T06:31:24;21.47;;;13.30;;
3405;SDS011;10008;48.682;9.016;2024-01-25T06:33:51;23.63;;;13.37;;
3405;SDS011;10008;48.682;9.016;2024-01-25T06:36:20;18.50;;;13.53;;
3405;SDS011;10008;48.682;9.016;2024-01-25T06:38:47;22.93;;;13.43;;
3405;SDS011;10008;48.682;9.016;2024-01-25T06:41:14;23.90;;;12.70;;
3405;SDS011;10008;48.682;9.016;2024-01-25T06:43:42;29.80;;;12.90;;
3405;SDS011;10008;48.682;9.016;2024-01-25T06:46:09;22.10;;;13.60;;
3405;SDS011;10008;48.682;9.016;2024-01-25T06:48:34;19.67;;;13.17;;
3405;SDS011;10008;48.682;9.016;2024-01-25T06:51:01;23.77;;;13.70;;
3405;SDS011;10008;48.682;9.016;2024-01-25T06:53:27;26.77;;;14.37;;
3405;SDS011;10008;48.682;9.016;2024-01-25T06:55:53;22.03;;;13.00;;
3405;SDS011;10008;48.682;9.016;2024-01-25T06:58:19;23.43;;;13.23;;
3405;SDS011;10008;48.682;9.016;2024-01-25T07:00:44;30.13;;;14.03;;
3405;SDS011;10008;48.682;9.016;2024-01-25T07:03:12;22.23;;;13.83;;
3405;SDS011;10008;48.682;9.016;2024-01-25T07:05:38;24.63;;;15.00;;
3405;SDS011;10008;48.682;9.016;2024-01-25T07:08:04;22.77;;;13.57;;
3405;SDS011;10008;48.682;9.016;2024-01-25T07:10:30;17.07;;;13.30;;
3405;SDS011;10008;48.682;9.016;2024-01-25T07:12:56;20.63;;;13.50;;
3405;SDS011;10008;48.682;9.016;2024-01-25T07:15:22;23.33;;;14.00;;
3405;SDS011;10008;48.682;9.016;2024-01-25T07:17:48;22.87;;;13.80;;
3405;SDS011;10008;48.682;9.016;2024-01-25T07:20:14;21.07;;;14.20;;
3405;SDS011;10008;48.682;9.016;2024-01-25T07:22:40;20.70;;;13.70;;
3405;SDS011;10008;48.682;9.016;2024-01-25T07:25:06;23.63;;;13.37;;
3405;SDS011;10008;48.682;9.016;2024-01-25T07:27:32;22.13;;;12.80;;
3405;SDS011;10008;48.682;9.016;2024-01-25T07:29:57;26.57;;;13.23;;
3405;SDS011;10008;48.682;9.016;2024-01-25T07:32:23;22.57;;;13.90;;
3405;SDS011;10008;48.682;9.016;2024-01-25T07:34:50;19.63;;;13.03;;
3405;SDS011;10008;48.682;9.016;2024-01-25T07:37:15;22.30;;;13.03;;
3405;SDS011;10008;48.682;9.016;2024-01-25T07:39:43;17.57;;;13.40;;
3405;SDS011;10008;48.682;9.016;2024-01-25T07:42:10;27.97;;;14.90;;
3405;SDS011;10008;48.682;9.016;2024-01-25T07:44:36;20.43;;;13.80;;
3405;SDS011;10008;48.682;9.016;2024-01-25T07:47:02;21.47;;;14.40;;
3405;SDS011;10008;48.682;9.016;2024-01-25T07:49:28;21.83;;;15.30;;
3405;SDS011;10008;48.682;9.016;2024-01-25T07:51:54;21.33;;;13.67;;
3405;SDS011;10008;48.682;9.016;2024-01-25T07:54:21;24.57;;;14.00;;
3405;SDS011;10008;48.682;9.016;2024-01-25T07:56:48;21.10;;;14.07;;
3405;SDS011;10008;48.682;9.016;2024-01-25T07:59:14;23.27;;;13.40;;
3405;SDS011;10008;48.682;9.016;2024-01-25T08:01:39;26.60;;;14.57;;
3405;SDS011;10008;48.682;9.016;2024-01-25T08:04:05;22.13;;;13.43;;
3405;SDS011;10008;48.682;9.016;2024-01-25T08:06:31;21.27;;;12.90;;
3405;SDS011;10008;48.682;9.016;2024-01-25T08:08:57;20.07;;;13.03;;
3405;SDS011;10008;48.682;9.016;2024-01-25T08:11:23;20.27;;;13.40;;
3405;SDS011;10008;48.682;9.016;2024-01-25T08:13:49;16.90;;;11.90;;
3405;SDS011;10008;48.682;9.016;2024-01-25T08:16:15;22.50;;;13.70;;
3405;SDS011;10008;48.682;9.016;2024-01-25T08:18:45;21.60;;;12.27;;
3405;SDS011;10008;48.682;9.016;2024-01-25T08:21:13;26.63;;;12.90;;
3405;SDS011;10008;48.682;9.016;2024-01-25T08:23:40;18.20;;;12.70;;
3405;SDS011;10008;48.682;9.016;2024-01-25T08:26:06;19.80;;;12.60;;
3405;SDS011;10008;48.682;9.016;2024-01-25T08:28:38;18.43;;;12.60;;
3405;SDS011;10008;48.682;9.016;2024-01-25T08:31:05;16.60;;;12.80;;
3405;SDS011;10008;48.682;9.016;2024-01-25T08:33:31;16.73;;;12.47;;
3405;SDS011;10008;48.682;9.016;2024-01-25T08:35:57;18.83;;;13.40;;
3405;SDS011;10008;48.682;9.016;2024-01-25T08:38:22;21.20;;;13.27;;
3405;SDS011;10008;48.682;9.016;2024-01-25T08:40:48;25.80;;;14.10;;
3405;SDS011;10008;48.682;9.016;2024-01-25T08:43:14;23.30;;;13.30;;
3405;SDS011;10008;48.682;9.016;2024-01-25T08:45:39;18.43;;;12.83;;
3405;SDS011;10008;48.682;9.016;2024-01-25T08:48:05;22.80;;;13.03;;
3405;SDS011;10008;48.682;9.016;2024-01-25T08:50:34;17.93;;;12.20;;
3405;SDS011;10008;48.682;9.016;2024-01-25T08:53:00;24.40;;;12.63;;
3405;SDS011;10008;48.682;9.016;2024-01-25T08:55:26;21.03;;;12.83;;
3405;SDS011;10008;48.682;9.016;2024-01-25T08:57:52;15.47;;;12.33;;
3405;SDS011;10008;48.682;9.016;2024-01-25T09:00:18;20.37;;;12.40;;
3405;SDS011;10008;48.682;9.016;2024-01-25T09:02:44;20.57;;;12.27;;
3405;SDS011;10008;48.682;9.016;2024-01-25T09:05:10;22.63;;;12.37;;
3405;SDS011;10008;48.682;9.016;2024-01-25T09:07:35;20.70;;;11.97;;
3405;SDS011;10008;48.682;9.016;2024-01-25T09:10:01;24.47;;;12.07;;
3405;SDS011;10008;48.682;9.016;2024-01-25T09:12:27;23.57;;;12.27;;
3405;SDS011;10008;48.682;9.016;2024-01-25T09:14:53;21.27;;;13.37;;
3405;SDS011;10008;48.682;9.016;2024-01-25T09:17:19;20.60;;;12.40;;
3405;SDS011;10008;48.682;9.016;2024-01-25T09:19:50;17.97;;;12.93;;
3405;SDS011;10008;48.682;9.016;2024-01-25T09:22:16;19.50;;;13.10;;
3405;SDS011;10008;48.682;9.016;2024-01-25T09:24:44;26.00;;;13.37;;
3405;SDS011;10008;48.682;9.016;2024-01-25T09:27:13;20.50;;;13.80;;
3405;SDS011;10008;48.682;9.016;2024-01-25T09:29:39;18.87;;;13.40;;
3405;SDS011;10008;48.682;9.016;2024-01-25T09:32:06;21.70;;;14.00;;
3405;SDS011;10008;48.682;9.016;2024-01-25T09:34:33;20.70;;;13.60;;
3405;SDS011;10008;48.682;9.016;2024-01-25T09:37:03;18.93;;;13.13;;
3405;SDS011;10008;48.682;9.016;2024-01-25T09:39:29;19.10;;;12.30;;
3405;SDS011;10008;48.682;9.016;2024-01-25T09:41:56;23.77;;;12.70;;
3405;SDS011;10008;48.682;9.016;2024-01-25T09:44:22;18.47;;;12.40;;
3405;SDS011;10008;48.682;9.016;2024-01-25T09:46:49;18.33;;;11.43;;
3405;SDS011;10008;48.682;9.016;2024-01-25T09:49:16;16.23;;;12.10;;
3405;SDS011;10008;48.682;9.016;2024-01-25T09:51:44;19.73;;;12.40;;
3405;SDS011;10008;48.682;9.016;2024-01-25T09:54:13;16.60;;;11.77;;
3405;SDS011;10008;48.682;9.016;2024-01-25T09:56:40;17.40;;;12.13;;
3405;SDS011;10008;48.682;9.016;2024-01-25T09:59:07;18.07;;;11.93;;
3405;SDS011;10008;48.682;9.016;2024-01-25T10:01:34;19.87;;;12.10;;
3405;SDS011;10008;48.682;9.016;2024-01-25T10:04:00;18.20;;;12.30;;
3405;SDS011;10008;48.682;9.016;2024-01-25T10:06:26;16.53;;;11.37;;
3405;SDS011;10008;48.682;9.016;2024-01-25T10:08:52;16.00;;;11.50;;
3405;SDS011;10008;48.682;9.016;2024-01-25T10:11:18;17.57;;;11.73;;
3405;SDS011;10008;48.682;9.016;2024-01-25T10:13:44;25.07;;;12.90;;
3405;SDS011;10008;48.682;9.016;2024-01-25T10:16:13;18.63;;;11.40;;
3405;SDS011;10008;48.682;9.016;2024-01-25T10:19:02;19.40;;;11.30;;
3405;SDS011;10008;48.682;9.016;2024-01-25T10:21:32;19.40;;;12.57;;
3405;SDS011;10008;48.682;9.016;2024-01-25T10:24:00;15.73;;;11.40;;
3405;SDS011;10008;48.682;9.016;2024-01-25T10:26:27;18.00;;;11.57;;
3405;SDS011;10008;48.682;9.016;2024-01-25T10:28:53;18.17;;;11.57;;
3405;SDS011;10008;48.682;9.016;2024-01-25T10:31:22;13.30;;;10.80;;
3405;SDS011;10008;48.682;9.016;2024-01-25T10:33:49;19.30;;;11.30;;
3405;SDS011;10008;48.682;9.016;2024-01-25T10:36:17;15.67;;;11.80;;
3405;SDS011;10008;48.682;9.016;2024-01-25T10:38:44;16.33;;;11.23;;
3405;SDS011;10008;48.682;9.016;2024-01-25T10:41:12;17.73;;;11.50;;
3405;SDS011;10008;48.682;9.016;2024-01-25T10:43:40;19.13;;;12.10;;
3405;SDS011;10008;48.682;9.016;2024-01-25T10:46:06;16.97;;;11.53;;
3405;SDS011;10008;48.682;9.016;2024-01-25T10:48:34;15.20;;;11.37;;
3405;SDS011;10008;48.682;9.016;2024-01-25T10:51:00;17.37;;;11.57;;
3405;SDS011;10008;48.682;9.016;2024-01-25T10:53:29;17.83;;;11.60;;
3405;SDS011;10008;48.682;9.016;2024-01-25T10:55:57;20.10;;;12.63;;
3405;SDS011;10008;48.682;9.016;2024-01-25T10:58:23;19.17;;;11.30;;
3405;SDS011;10008;48.682;9.016;2024-01-25T11:00:55;14.00;;;11.23;;
3405;SDS011;10008;48.682;9.016;2024-01-25T11:03:27;13.77;;;11.47;;
3405;SDS011;10008;48.682;9.016;2024-01-25T11:06:09;15.43;;;11.17;;
3405;SDS011;10008;48.682;9.016;2024-01-25T11:08:38;18.40;;;11.13;;
3405;SDS011;10008;48.682;9.016;2024-01-25T11:11:05;14.70;;;10.83;;
3405;SDS011;10008;48.682;9.016;2024-01-25T11:13:33;20.27;;;11.00;;
3405;SDS011;10008;48.682;9.016;2024-01-25T11:15:59;13.17;;;10.83;;
3405;SDS011;10008;48.682;9.016;2024-01-25T11:18:46;13.13;;;10.40;;
3405;SDS011;10008;48.682;9.016;2024-01-25T11:21:21;13.27;;;10.37;;
3405;SDS011;10008;48.682;9.016;2024-01-25T11:23:48;14.73;;;10.90;;
3405;SDS011;10008;48.682;9.016;2024-01-25T11:26:15;15.70;;;10.90;;
3405;SDS011;10008;48.682;9.016;2024-01-25T11:28:40;16.73;;;11.40;;
3405;SDS011;10008;48.682;9.016;2024-01-25T11:31:06;12.60;;;10.90;;
3405;SDS011;10008;48.682;9.016;2024-01-25T11:33:32;18.17;;;11.73;;
3405;SDS011;10008;48.682;9.016;2024-01-25T11:35:59;15.33;;;11.00;;
3405;SDS011;10008;48.682;9.016;2024-01-25T11:38:24;14.23;;;11.30;;
3405;SDS011;10008;48.682;9.016;2024-01-25T11:40:50;15.63;;;10.87;;
3405;SDS011;10008;48.682;9.016;2024-01-25T11:43:16;14.47;;;11.27;;
3405;SDS011;10008;48.682;9.016;2024-01-25T11:45:42;16.20;;;11.67;;
3405;SDS011;10008;48.682;9.016;2024-01-25T11:48:07;12.43;;;11.20;;
3405;SDS011;10008;48.682;9.016;2024-01-25T11:50:33;12.97;;;11.63;;
3405;SDS011;10008;48.682;9.016;2024-01-25T11:53:00;15.07;;;11.60;;
3405;SDS011;10008;48.682;9.016;2024-01-25T11:55:25;18.10;;;11.70;;
3405;SDS011;10008;48.682;9.016;2024-01-25T11:57:51;13.90;;;11.00;;
3405;SDS011;10008;48.682;9.016;2024-01-25T12:00:18;13.23;;;10.70;;
3405;SDS011;10008;48.682;9.016;2024-01-25T12:02:44;15.07;;;10.80;;
3405;SDS011;10008;48.682;9.016;2024-01-25T12:05:10;16.23;;;11.93;;
3405;SDS011;10008;48.682;9.016;2024-01-25T12:07:38;18.03;;;11.70;;
3405;SDS011;10008;48.682;9.016;2024-01-25T12:10:05;20.27;;;13.97;;
3405;SDS011;10008;48.682;9.016;2024-01-25T12:12:35;16.90;;;12.40;;
3405;SDS011;10008;48.682;9.016;2024-01-25T12:15:04;12.73;;;11.17;;
3405;SDS011;10008;48.682;9.016;2024-01-25T12:17:31;15.03;;;11.30;;
3405;SDS011;10008;48.682;9.016;2024-01-25T12:19:59;16.20;;;11.43;;
3405;SDS011;10008;48.682;9.016;2024-01-25T12:22:28;17.47;;;11.50;;
3405;SDS011;10008;48.682;9.016;2024-01-25T12:24:58;14.33;;;11.40;;
3405;SDS011;10008;48.682;9.016;2024-01-25T12:27:24;12.67;;;10.93;;
3405;SDS011;10008;48.682;9.016;2024-01-25T12:29:51;13.53;;;10.97;;
3405;SDS011;10008;48.682;9.016;2024-01-25T12:32:20;12.00;;;10.67;;
3405;SDS011;10008;48.682;9.016;2024-01-25T12:34:55;14.03;;;10.77;;
3405;SDS011;10008;48.682;9.016;2024-01-25T12:37:22;14.87;;;10.77;;
3405;SDS011;10008;48.682;9.016;2024-01-25T12:39:48;11.90;;;10.70;;
3405;SDS011;10008;48.682;9.016;2024-01-25T12:42:17;11.80;;;10.20;;
3405;SDS011;10008;48.682;9.016;2024-01-25T12:44:43;12.80;;;10.70;;
3405;SDS011;10008;48.682;9.016;2024-01-25T12:47:10;11.97;;;10.57;;
3405;SDS011;10008;48.682;9.016;2024-01-25T12:49:39;11.27;;;10.03;;
3405;SDS011;10008;48.682;9.016;2024-01-25T12:52:12;12.73;;;10.00;;
3405;SDS011;10008;48.682;9.016;2024-01-25T12:54:39;13.17;;;10.27;;
3405;SDS011;10008;48.682;9.016;2024-01-25T12:57:05;13.40;;;10.80;;
3405;SDS011;10008;48.682;9.016;2024-01-25T12:59:32;14.27;;;11.00;;
3405;SDS011;10008;48.682;9.016;2024-01-25T13:01:59;13.67;;;10.80;;
3405;SDS011;10008;48.682;9.016;2024-01-25T13:04:25;11.53;;;10.47;;
3405;SDS011;10008;48.682;9.016;2024-01-25T13:06:52;14.30;;;11.00;;
3405;SDS011;10008;48.682;9.016;2024-01-25T13:09:22;13.37;;;10.47;;
3405;SDS011;10008;48.682;9.016;2024-01-25T13:11:48;13.37;;;10.73;;
3405;SDS011;10008;48.682;9.016;2024-01-25T13:14:14;12.33;;;10.77;;
3405;SDS011;10008;48.682;9.016;2024-01-25T13:16:41;11.90;;;10.53;;
3405;SDS011;10008;48.682;9.016;2024-01-25T13:19:06;12.17;;;9.83;;
3405;SDS011;10008;48.682;9.016;2024-01-25T13:21:32;12.20;;;10.90;;
3405;SDS011;10008;48.682;9.016;2024-01-25T13:23:59;12.20;;;10.83;;
3405;SDS011;10008;48.682;9.016;2024-01-25T13:26:25;13.17;;;10.20;;
3405;SDS011;10008;48.682;9.016;2024-01-25T13:28:51;12.00;;;10.40;;
3405;SDS011;10008;48.682;9.016;2024-01-25T13:31:17;11.77;;;10.57;;
3405;SDS011;10008;48.682;9.016;2024-01-25T13:33:43;13.70;;;10.50;;
3405;SDS011;10008;48.682;9.016;2024-01-25T13:36:10;12.37;;;10.40;;
3405;SDS011;10008;48.682;9.016;2024-01-25T13:38:38;12.20;;;10.40;;
3405;SDS011;10008;48.682;9.016;2024-01-25T13:41:05;12.07;;;10.03;;
3405;SDS011;10008;48.682;9.016;2024-01-25T13:43:31;12.43;;;10.33;;
3405;SDS011;10008;48.682;9.016;2024-01-25T13:45:56;13.90;;;10.33;;
3405;SDS011;10008;48.682;9.016;2024-01-25T13:48:22;14.60;;;10.83;;
3405;SDS011;10008;48.682;9.016;2024-01-25T13:50:48;14.03;;;10.90;;
3405;SDS011;10008;48.682;9.016;2024-01-25T13:53:14;11.80;;;10.47;;
3405;SDS011;10008;48.682;9.016;2024-01-25T13:55:40;11.50;;;10.30;;
3405;SDS011;10008;48.682;9.016;2024-01-25T13:58:05;15.17;;;11.33;;
3405;SDS011;10008;48.682;9.016;2024-01-25T14:00:31;12.67;;;10.20;;
3405;SDS011;10008;48.682;9.016;2024-01-25T14:02:57;13.63;;;10.30;;
3405;SDS011;10008;48.682;9.016;2024-01-25T14:05:23;13.17;;;10.43;;
3405;SDS011;10008;48.682;9.016;2024-01-25T14:07:48;12.83;;;10.40;;
3405;SDS011;10008;48.682;9.016;2024-01-25T14:10:14;11.87;;;10.60;;
3405;SDS011;10008;48.682;9.016;2024-01-25T14:12:40;14.10;;;10.83;;
3405;SDS011;10008;48.682;9.016;2024-01-25T14:15:06;15.53;;;10.33;;
3405;SDS011;10008;48.682;9.016;2024-01-25T14:17:32;15.43;;;10.50;;
3405;SDS011;10008;48.682;9.016;2024-01-25T14:19:58;12.07;;;10.43;;
3405;SDS011;10008;48.682;9.016;2024-01-25T14:22:23;13.40;;;10.53;;
3405;SDS011;10008;48.682;9.016;2024-01-25T14:24:49;11.37;;;10.30;;
3405;SDS011;10008;48.682;9.016;2024-01-25T14:27:15;15.67;;;10.37;;
3405;SDS011;10008;48.682;9.016;2024-01-25T14:29:40;12.90;;;10.50;;